Latest Weather Observations for Charles Point

IDD60901

Issued at 9:55 pm CST Thursday 2 October 2014 (issued every 10 minutes, with the page automatically refreshed every 10 minutes)

About weather observations | Map of Darwin area stations | Latest observations for Darwin area | Other Formats
Station Details ID: 014031 Name: CHARLES POINT Lat: -12.39 Lon: 130.63 Height: 14.0 m
Data from the previous 72 hours. | See also: Recent months for locations in Northern Territory
Date/Time
CST
Tmp

°C
App
Tmp
°C
Dew
Point
°C
Rel
Hum
%
Delta-T

°C
Wind Press
QNH
hPa
Press
MSL
hPa
Rain
since
9 am
mm
Dir
 
Spd
km/h
Gust
km/h
Spd
kts
Gust
kts
02/09:30pm 26.8 30.0 21.3 72 3.7 W 6 11 3 6 1012.8 1012.7 0.0
02/09:00pm 26.2 29.5 20.8 72 3.6 WSW 4 9 2 5 1012.6 1012.5 0.0
02/08:30pm 26.1 29.3 20.4 71 3.7 S 4 6 2 3 1012.0 1011.9 0.0
02/08:00pm 26.5 29.2 20.3 68 4.1 SSW 6 7 3 4 1011.6 1011.5 0.0
02/07:30pm 27.1 30.2 20.2 66 4.5 SW 4 7 2 4 1011.4 1011.3 0.0
02/07:00pm 27.4 30.5 20.2 65 4.7 WNW 4 7 2 4 1011.3 1011.2 0.0
02/06:30pm 28.4 31.2 20.4 62 5.3 NW 6 11 3 6 1011.0 1010.9 0.0
02/06:00pm 29.0 31.5 20.2 59 5.8 NW 7 13 4 7 1010.4 1010.3 0.0
02/05:30pm 29.4 31.6 21.1 61 5.5 NW 11 17 6 9 1010.1 1010.0 0.0
02/05:00pm 29.5 31.6 20.9 60 5.7 NW 11 15 6 8 1009.9 1009.7 0.0
02/04:30pm 29.5 31.3 21.2 61 5.6 NNW 13 19 7 10 1009.9 1009.7 0.0
02/04:00pm 29.6 31.8 21.8 63 5.3 NW 13 20 7 11 1009.9 1009.7 0.0
02/03:30pm 29.3 31.6 22.0 64 4.9 NNW 13 22 7 12 1010.0 1009.9 0.0
02/03:00pm 30.0 32.4 22.9 65 4.9 NW 15 20 8 11 1010.1 1010.0 0.0
02/02:30pm 30.2 32.6 22.9 65 5.0 NW 15 22 8 12 1010.3 1010.2 0.0
02/02:00pm 29.9 32.1 22.6 65 5.0 NW 15 22 8 12 1010.6 1010.5 0.0
02/01:30pm 30.3 32.6 22.7 64 5.2 NW 15 20 8 11 1011.0 1010.9 0.0
02/01:00pm 29.8 32.1 22.8 66 4.8 NW 15 20 8 11 1011.6 1011.5 0.0
02/12:30pm 29.9 32.3 22.3 63 5.2 NNW 13 19 7 10 1012.3 1012.2 0.0
02/12:00pm 29.8 33.0 22.3 64 5.1 NNW 9 15 5 8 1012.9 1012.8 0.0
02/11:30am 29.4 32.4 21.9 64 5.1 NNW 9 13 5 7 1013.3 1013.2 0.0
02/11:00am 28.7 31.8 21.5 65 4.8 N 7 9 4 5 1013.9 1013.8 0.0
02/10:30am 29.6 32.9 21.8 63 5.3 NNW 7 9 4 5 1014.3 1014.2 0.0
02/10:00am 28.6 31.8 21.6 66 4.7 N 7 11 4 6 1014.3 1014.2 0.0
02/09:30am 28.2 31.3 21.0 65 4.8 NNE 6 7 3 4 1014.6 1014.5 0.0
02/09:00am 28.1 31.2 21.1 65 4.6 N 6 7 3 4 1014.5 1014.4 0.0
02/08:30am 28.0 31.9 21.1 66 4.6 N 2 4 1 2 1014.2 1014.1 0.0
02/08:00am 27.4 30.8 21.0 68 4.2 N 4 6 2 3 1013.9 1013.8 0.0
02/07:30am 26.9 30.5 21.2 71 3.8 N 4 7 2 4 1013.7 1013.6 0.0
02/07:00am 26.5 29.6 21.5 74 3.3 N 7 11 4 6 1013.1 1013.0 0.0
02/06:30am 25.9 29.1 21.3 76 3.0 NW 6 11 3 6 1012.4 1012.3 0.0
02/06:00am 26.4 29.5 21.4 74 3.3 NW 7 13 4 7 1012.1 1012.0 0.0
02/05:30am 24.4 27.5 20.3 78 2.7 WNW 4 7 2 4 1011.8 1011.7 0.0
02/05:00am 24.5 27.6 20.2 77 2.8 W 4 9 2 5 1011.6 1011.5 0.0
02/04:30am 24.3 27.4 20.2 78 2.7 W 4 7 2 4 1011.4 1011.3 0.0
02/04:00am 24.5 27.2 20.2 77 2.8 WSW 6 7 3 4 1011.5 1011.4 0.0
02/03:30am 24.3 27.4 20.2 78 2.7 W 4 7 2 4 1011.8 1011.7 0.0
02/03:00am 24.5 28.3 20.2 77 2.8 CALM 0 0 0 0 1012.1 1012.0 0.0
02/02:30am 26.9 30.0 20.3 67 4.3 N 4 7 2 4 1012.3 1012.2 0.0
02/02:00am 27.1 29.6 20.2 66 4.5 NNE 7 13 4 7 1012.7 1012.6 0.0
02/01:30am 27.2 30.1 21.0 69 4.1 NNE 7 11 4 6 1012.7 1012.6 0.0
02/01:00am 27.3 30.2 21.1 69 4.1 N 7 11 4 6 1012.8 1012.7 0.0
02/12:30am 27.5 29.5 21.5 70 4.0 NW 13 22 7 12 1012.9 1012.8 0.0
02/12:00am 27.6 29.0 21.9 71 3.8 WNW 17 22 9 12 1013.1 1013.0 0.0
 
Date/Time
CST
Tmp

°C
App
Tmp
°C
Dew
Point
°C
Rel
Hum
%
Delta-T

°C
Wind Press
QNH
hPa
Press
MSL
hPa
Rain
since
9 am
mm
Dir
 
Spd
km/h
Gust
km/h
Spd
kts
Gust
kts
01/11:30pm 26.2 29.1 19.8 68 4.2 WSW 4 7 2 4 1013.1 1013.0 0.0
01/11:00pm 25.6 28.1 19.0 67 4.2 SW 4 6 2 3 1013.2 1013.1 0.0
01/10:30pm 25.4 27.6 18.3 65 4.5 SW 4 7 2 4 1013.1 1013.0 0.0
01/10:00pm 25.8 27.6 18.2 63 4.8 SW 6 7 3 4 1012.9 1012.8 0.0
01/09:30pm 25.9 27.9 17.8 61 5.1 S 4 6 2 3 1012.7 1012.6 0.0
01/09:00pm 26.8 28.8 17.8 57 5.7 SE 4 9 2 5 1012.3 1012.2 0.0
01/08:30pm 26.9 28.0 17.9 57 5.7 S 9 11 5 6 1011.7 1011.6 0.0
01/08:00pm 26.1 28.0 18.5 63 4.8 S 6 7 3 4 1011.3 1011.2 0.0
01/07:30pm 26.8 29.0 18.4 60 5.4 NNE 4 4 2 2 1011.0 1010.9 0.0
01/07:00pm 27.7 30.2 18.1 56 6.1 NNE 2 4 1 2 1010.6 1010.5 0.0
01/06:30pm 29.1 30.7 17.9 50 7.1 N 6 7 3 4 1010.3 1010.2 0.0
01/06:00pm 29.1 30.4 18.5 52 6.8 N 9 11 5 6 1010.1 1010.0 0.0
01/05:30pm 29.1 30.6 18.8 53 6.7 N 9 13 5 7 1009.9 1009.7 0.0
01/05:00pm 28.9 30.2 19.2 55 6.3 N 11 15 6 8 1009.9 1009.7 0.0
01/04:30pm 29.1 30.4 19.4 55 6.3 NNE 11 17 6 9 1009.8 1009.6 0.0
01/04:00pm 29.5 30.7 19.8 56 6.4 NNE 13 20 7 11 1010.0 1009.9 0.0
01/03:30pm 29.3 29.5 19.3 55 6.5 NNE 17 24 9 13 1010.0 1009.9 0.0
01/03:00pm 28.7 28.6 19.6 58 5.9 NNE 19 26 10 14 1010.2 1010.1 0.0
01/02:30pm 28.8 28.1 19.4 56 6.1 N 22 30 12 16 1010.7 1010.6 0.0
01/02:00pm 28.4 28.5 21.2 65 4.8 N 22 30 12 16 1011.1 1011.0 0.0
01/01:30pm 28.6 29.2 21.4 65 4.8 N 20 24 11 13 1011.9 1011.8 0.0
01/01:00pm 28.9 29.9 21.1 62 5.2 N 17 24 9 13 1012.5 1012.4 0.0
01/12:30pm 29.0 30.5 21.2 62 5.2 N 15 20 8 11 1013.2 1013.1 0.0
01/12:00pm 28.9 31.3 20.1 59 5.8 N 7 9 4 5 1013.8 1013.7 0.0
01/11:30am 28.6 30.9 20.6 62 5.3 NNE 9 13 5 7 1014.4 1014.3 0.0
01/11:00am 28.6 31.0 20.9 63 5.1 NNE 9 13 5 7 1014.8 1014.7 0.0
01/10:30am 28.3 29.9 20.8 63 5.0 NE 13 19 7 10 1015.1 1015.0 0.0
01/10:00am 28.8 31.2 20.8 62 5.3 ENE 9 13 5 7 1014.9 1014.8 0.0
01/09:30am 28.9 31.6 20.6 61 5.5 ENE 7 13 4 7 1015.0 1014.9 0.0
01/09:00am 28.9 31.8 20.6 61 5.5 ENE 6 11 3 6 1014.9 1014.8 0.0
01/08:30am 28.1 31.3 20.4 63 5.1 E 4 7 2 4 1014.6 1014.5 0.0
01/08:00am 27.3 30.9 21.3 69 4.0 SSE 4 7 2 4 1014.3 1014.2 0.0
01/07:30am 25.9 29.7 21.6 77 2.9 S 4 7 2 4 1013.7 1013.6 0.0
01/07:00am 24.6 27.8 21.3 82 2.2 S 6 7 3 4 1013.5 1013.4 0.0
01/06:30am 26.0 29.4 21.0 74 3.3 ESE 4 9 2 5 1013.2 1013.1 0.0
01/06:00am 26.2 29.3 21.0 73 3.4 E 6 11 3 6 1012.9 1012.8 0.0
01/05:30am 26.3 29.2 21.1 73 3.4 E 7 11 4 6 1012.7 1012.6 0.0
01/05:00am 26.7 28.7 21.5 73 3.5 ENE 13 20 7 11 1012.4 1012.3 0.0
01/04:30am 26.7 29.7 21.2 72 3.6 ENE 7 13 4 7 1012.1 1012.0 0.0
01/04:00am 26.7 29.5 21.5 73 3.5 ENE 9 17 5 9 1012.1 1012.0 0.0
01/03:30am 26.5 29.8 21.9 76 3.1 ENE 7 13 4 7 1012.3 1012.2 0.0
01/03:00am 26.8 29.3 21.8 74 3.3 ENE 11 19 6 10 1012.2 1012.1 0.0
01/02:30am 26.3 30.4 22.2 78 2.8 ESE 4 7 2 4 1012.5 1012.4 0.0
01/02:00am 26.5 28.8 22.1 77 3.0 NE 13 19 7 10 1012.6 1012.5 0.0
01/01:30am 26.8 28.2 22.6 78 2.8 NE 19 24 10 13 1012.7 1012.6 0.0
01/01:00am 27.1 29.9 21.6 72 3.7 NW 9 15 5 8 1012.9 1012.8 0.0
01/12:30am 27.1 30.3 21.6 72 3.7 W 7 11 4 6 1013.0 1012.9 0.0
01/12:00am 27.2 30.8 22.4 75 3.2 W 7 15 4 8 1013.4 1013.3 0.0
 
Date/Time
CST
Tmp

°C
App
Tmp
°C
Dew
Point
°C
Rel
Hum
%
Delta-T

°C
Wind Press
QNH
hPa
Press
MSL
hPa
Rain
since
9 am
mm
Dir
 
Spd
km/h
Gust
km/h
Spd
kts
Gust
kts
30/11:30pm 27.4 29.1 22.4 74 3.4 W 17 26 9 14 1013.3 1013.2 0.0
30/11:00pm 27.5 30.5 22.7 75 3.3 W 11 22 6 12 1013.4 1013.3 0.0
30/10:30pm 27.4 30.5 22.1 73 3.6 W 9 15 5 8 1013.4 1013.3 0.0
30/10:00pm 27.3 30.5 22.3 74 3.4 W 9 17 5 9 1013.2 1013.1 0.0
30/09:30pm 27.3 30.5 22.3 74 3.4 W 9 17 5 9 1012.7 1012.6 0.0
30/09:00pm 27.5 30.7 22.4 73 3.4 W 9 17 5 9 1012.4 1012.3 0.0
30/08:30pm 27.1 30.7 19.7 64 4.8 CALM 0 0 0 0 1011.9 1011.8 0.0
30/08:00pm 27.6 31.2 19.7 62 5.1 CALM 0 4 0 2 1011.7 1011.6 0.0
30/07:30pm 29.3 31.6 19.9 57 6.2 NNE 7 9 4 5 1011.4 1011.3 0.0
30/07:00pm 29.1 31.1 20.0 58 6.0 NNE 9 13 5 7 1011.0 1010.9 0.0
30/06:30pm 29.2 30.4 19.8 57 6.2 NNE 13 17 7 9 1010.5 1010.4 0.0
30/06:00pm 29.2 30.0 20.6 59 5.7 NNE 17 22 9 12 1009.9 1009.8 0.0
30/05:30pm 29.4 28.9 20.0 57 6.2 NNE 22 32 12 17 1009.7 1009.6 0.0
30/05:00pm 29.3 29.2 19.9 57 6.2 NE 20 30 11 16 1009.6 1009.5 0.0
30/04:30pm 29.6 29.4 20.5 58 6.0 NE 22 30 12 16 1009.7 1009.6 0.0
30/04:00pm 29.7 29.2 20.0 56 6.4 NE 22 32 12 17 1009.9 1009.8 0.0
30/03:30pm 29.3 30.0 21.5 63 5.2 NE 20 30 11 16 1010.3 1010.2 0.0
30/03:00pm 29.4 29.5 21.1 61 5.5 NE 22 30 12 16 1010.7 1010.6 0.0
30/02:30pm 29.5 30.5 22.2 65 4.9 NE 20 28 11 15 1011.1 1011.0 0.0
30/02:00pm 29.9 31.3 21.8 62 5.5 NNE 17 24 9 13 1011.6 1011.5 0.0
30/01:30pm 29.8 31.8 22.3 64 5.1 NNE 15 22 8 12 1012.1 1012.0 0.0
30/01:00pm 29.6 31.5 22.1 64 5.1 NNE 15 20 8 11 1012.6 1012.5 0.0
30/12:30pm 29.3 31.2 22.0 64 4.9 NNE 15 20 8 11 1013.1 1013.0 0.0
30/12:00pm 28.8 31.1 22.1 67 4.5 NNE 13 20 7 11 1013.6 1013.5 0.0
30/11:30am 28.7 31.4 22.2 68 4.4 NNE 11 15 6 8 1014.0 1013.9 0.0
30/11:00am 29.0 31.7 22.2 66 4.6 NE 11 17 6 9 1014.3 1014.2 0.0
30/10:30am 28.6 30.8 21.1 64 5.0 NE 11 19 6 10 1014.5 1014.4 0.0
30/10:00am 28.7 30.9 21.2 64 5.0 NE 11 17 6 9 1014.9 1014.8 0.0
30/09:30am 28.7 31.2 21.7 66 4.7 ENE 11 15 6 8 1015.0 1014.9 0.0
30/09:00am 27.9 30.1 21.2 67 4.5 NE 11 17 6 9 1015.1 1015.0 0.0
30/08:30am 28.0 30.9 21.1 66 4.6 NE 7 11 4 6 1014.9 1014.8 0.0
30/08:00am 27.4 30.0 21.2 69 4.1 NE 9 15 5 8 1014.5 1014.4 0.0
30/07:30am 27.2 30.2 21.2 69 4.0 ENE 7 13 4 7 1014.3 1014.2 0.0
30/07:00am 26.5 29.8 21.5 74 3.3 NE 6 9 3 5 1014.1 1014.0 0.0
30/06:30am 26.5 29.2 21.3 73 3.4 NE 9 13 5 7 1013.8 1013.7 0.0
30/06:00am 26.5 29.2 21.3 73 3.4 NNE 9 15 5 8 1013.6 1013.5 0.0
30/05:30am 26.5 28.1 20.8 71 3.8 NNE 13 19 7 10 1013.4 1013.3 0.0
30/05:00am 26.6 27.4 20.7 70 3.9 N 17 22 9 12 1012.8 1012.7 0.0
30/04:30am 26.8 28.0 20.6 69 4.1 NNE 15 20 8 11 1012.7 1012.6 0.0
30/04:00am 26.9 28.6 21.0 70 3.9 N 13 17 7 9 1012.6 1012.5 0.0
30/03:30am 26.7 29.6 21.0 71 3.8 NNW 7 15 4 8 1012.4 1012.3 0.0
30/03:00am 24.4 28.4 20.5 79 2.5 CALM 0 4 0 2 1012.4 1012.3 0.0
30/02:30am 24.6 28.6 20.5 78 2.7 CALM 0 0 0 0 1012.3 1012.2 0.0
30/02:00am 24.9 28.4 20.4 76 2.9 W 2 4 1 2 1012.2 1012.1 0.0
30/01:30am 26.1 29.0 21.1 74 3.3 WNW 7 11 4 6 1012.5 1012.4 0.0
30/01:00am 26.8 29.3 21.1 71 3.8 WNW 9 13 5 7 1012.7 1012.6 0.0
30/12:30am 27.2 29.6 20.8 68 4.2 NW 9 15 5 8 1012.8 1012.7 0.0
30/12:00am 27.3 28.7 21.1 69 4.1 NW 15 20 8 11 1012.9 1012.8 0.0
 
Date/Time
CST
Tmp

°C
App
Tmp
°C
Dew
Point
°C
Rel
Hum
%
Delta-T

°C
Wind Press
QNH
hPa
Press
MSL
hPa
Rain
since
9 am
mm
Dir
 
Spd
km/h
Gust
km/h
Spd
kts
Gust
kts
29/11:30pm 27.4 29.0 21.4 70 4.0 NW 15 17 8 9 1013.1 1013.0 0.0
29/11:00pm 27.6 28.7 20.4 65 4.7 WNW 15 19 8 10 1012.8 1012.7 0.0
29/10:30pm 27.6 28.7 20.4 65 4.7 WNW 15 19 8 10 1012.8 1012.7 0.0
29/10:00pm 27.1 29.5 20.0 65 4.6 WNW 7 13 4 7 1012.8 1012.7 0.0

Latest Capital City Observations: Canberra | Sydney | Melbourne | Brisbane | Adelaide | Perth | Hobart | Darwin

Other Formats:

Comma delimited format used in spreadsheet applications
http://www.bom.gov.au/fwo/IDD60901/IDD60901.99510.axf

JavaScript Object Notation format (JSON) in row-major order
http://www.bom.gov.au/fwo/IDD60901/IDD60901.99510.json